sensor_id;sensor_type;location;lat;lon;timestamp;temperature;humidity
58469;DHT22;44257;44.804;10.220;2022-12-08T00:01:09;4.40;99.90
58469;DHT22;44257;44.804;10.220;2022-12-08T00:03:36;4.40;99.90
58469;DHT22;44257;44.804;10.220;2022-12-08T00:06:04;4.40;99.90
58469;DHT22;44257;44.804;10.220;2022-12-08T00:08:49;4.40;99.90
58469;DHT22;44257;44.804;10.220;2022-12-08T00:11:34;4.40;99.90
58469;DHT22;44257;44.804;10.220;2022-12-08T00:14:00;4.40;99.90
58469;DHT22;44257;44.804;10.220;2022-12-08T00:16:25;4.50;99.90
58469;DHT22;44257;44.804;10.220;2022-12-08T00:18:51;4.40;99.90
58469;DHT22;44257;44.804;10.220;2022-12-08T00:21:17;4.40;99.90
58469;DHT22;44257;44.804;10.220;2022-12-08T00:23:43;4.40;99.90
58469;DHT22;44257;44.804;10.220;2022-12-08T00:26:09;4.40;99.90
58469;DHT22;44257;44.804;10.220;2022-12-08T00:28:35;4.40;99.90
58469;DHT22;44257;44.804;10.220;2022-12-08T00:31:07;4.50;99.90
58469;DHT22;44257;44.804;10.220;2022-12-08T00:33:33;4.50;99.90
58469;DHT22;44257;44.804;10.220;2022-12-08T00:36:05;4.50;99.90
58469;DHT22;44257;44.804;10.220;2022-12-08T00:38:31;4.50;99.90
58469;DHT22;44257;44.804;10.220;2022-12-08T00:40:58;4.50;99.90
58469;DHT22;44257;44.804;10.220;2022-12-08T00:43:24;4.40;99.90
58469;DHT22;44257;44.804;10.220;2022-12-08T00:45:49;4.50;99.90
58469;DHT22;44257;44.804;10.220;2022-12-08T00:48:15;4.50;99.90
58469;DHT22;44257;44.804;10.220;2022-12-08T00:50:41;4.50;99.90
58469;DHT22;44257;44.804;10.220;2022-12-08T00:53:07;4.40;99.90
58469;DHT22;44257;44.804;10.220;2022-12-08T00:55:33;4.40;99.90
58469;DHT22;44257;44.804;10.220;2022-12-08T00:57:58;4.40;99.90
58469;DHT22;44257;44.804;10.220;2022-12-08T01:00:24;4.40;99.90
58469;DHT22;44257;44.804;10.220;2022-12-08T01:02:50;4.50;99.90
58469;DHT22;44257;44.804;10.220;2022-12-08T01:05:16;4.50;99.90
58469;DHT22;44257;44.804;10.220;2022-12-08T01:07:42;4.40;99.90
58469;DHT22;44257;44.804;10.220;2022-12-08T01:10:08;4.50;99.90
58469;DHT22;44257;44.804;10.220;2022-12-08T01:12:35;4.50;99.90
58469;DHT22;44257;44.804;10.220;2022-12-08T01:15:01;4.50;99.90
58469;DHT22;44257;44.804;10.220;2022-12-08T01:17:27;4.40;99.90
58469;DHT22;44257;44.804;10.220;2022-12-08T01:19:53;4.50;99.90
58469;DHT22;44257;44.804;10.220;2022-12-08T01:22:19;4.50;99.90
58469;DHT22;44257;44.804;10.220;2022-12-08T01:24:44;4.50;99.90
58469;DHT22;44257;44.804;10.220;2022-12-08T01:27:10;4.50;99.90
58469;DHT22;44257;44.804;10.220;2022-12-08T01:29:36;4.50;99.90
58469;DHT22;44257;44.804;10.220;2022-12-08T01:32:02;4.40;99.90
58469;DHT22;44257;44.804;10.220;2022-12-08T01:34:28;4.50;99.90
58469;DHT22;44257;44.804;10.220;2022-12-08T01:36:54;4.50;99.90
58469;DHT22;44257;44.804;10.220;2022-12-08T01:39:19;4.50;99.90
58469;DHT22;44257;44.804;10.220;2022-12-08T01:41:46;4.40;99.90
58469;DHT22;44257;44.804;10.220;2022-12-08T01:46:41;4.30;99.90
58469;DHT22;44257;44.804;10.220;2022-12-08T01:49:21;4.40;99.90
58469;DHT22;44257;44.804;10.220;2022-12-08T01:51:49;4.40;99.90
58469;DHT22;44257;44.804;10.220;2022-12-08T01:54:18;4.30;99.90
58469;DHT22;44257;44.804;10.220;2022-12-08T01:57:09;4.30;99.90
58469;DHT22;44257;44.804;10.220;2022-12-08T01:59:41;4.40;99.90
58469;DHT22;44257;44.804;10.220;2022-12-08T02:02:10;4.40;99.90
58469;DHT22;44257;44.804;10.220;2022-12-08T02:04:36;4.40;99.90
58469;DHT22;44257;44.804;10.220;2022-12-08T02:07:03;4.40;99.90
58469;DHT22;44257;44.804;10.220;2022-12-08T02:09:29;4.30;99.90
58469;DHT22;44257;44.804;10.220;2022-12-08T02:11:56;4.30;99.90
58469;DHT22;44257;44.804;10.220;2022-12-08T02:14:23;4.30;99.90
58469;DHT22;44257;44.804;10.220;2022-12-08T02:42:07;4.30;99.90
58469;DHT22;44257;44.804;10.220;2022-12-08T02:47:18;4.30;99.90
58469;DHT22;44257;44.804;10.220;2022-12-08T02:49:45;4.40;99.90
58469;DHT22;44257;44.804;10.220;2022-12-08T02:54:39;4.50;99.90
58469;DHT22;44257;44.804;10.220;2022-12-08T03:05:32;4.40;99.90
58469;DHT22;44257;44.804;10.220;2022-12-08T03:11:20;4.50;99.90
58469;DHT22;44257;44.804;10.220;2022-12-08T03:13:55;4.50;99.90
58469;DHT22;44257;44.804;10.220;2022-12-08T03:16:24;4.50;99.90
58469;DHT22;44257;44.804;10.220;2022-12-08T03:18:58;4.40;99.90
58469;DHT22;44257;44.804;10.220;2022-12-08T03:21:25;4.50;99.90
58469;DHT22;44257;44.804;10.220;2022-12-08T03:23:53;4.50;99.90
58469;DHT22;44257;44.804;10.220;2022-12-08T03:26:31;4.40;99.90
58469;DHT22;44257;44.804;10.220;2022-12-08T03:28:59;4.40;99.90
58469;DHT22;44257;44.804;10.220;2022-12-08T03:31:27;4.40;99.90
58469;DHT22;44257;44.804;10.220;2022-12-08T03:33:57;4.40;99.90
58469;DHT22;44257;44.804;10.220;2022-12-08T03:36:24;4.40;99.90
58469;DHT22;44257;44.804;10.220;2022-12-08T03:41:15;4.40;99.90
58469;DHT22;44257;44.804;10.220;2022-12-08T03:43:55;4.50;99.90
58469;DHT22;44257;44.804;10.220;2022-12-08T03:46:26;4.50;99.90
58469;DHT22;44257;44.804;10.220;2022-12-08T03:48:53;4.60;99.90
58469;DHT22;44257;44.804;10.220;2022-12-08T03:51:19;4.60;99.90
58469;DHT22;44257;44.804;10.220;2022-12-08T03:53:46;4.70;99.90
58469;DHT22;44257;44.804;10.220;2022-12-08T03:56:29;4.70;99.90
58469;DHT22;44257;44.804;10.220;2022-12-08T03:58:55;4.70;99.90
58469;DHT22;44257;44.804;10.220;2022-12-08T04:01:22;4.60;99.90
58469;DHT22;44257;44.804;10.220;2022-12-08T04:03:48;4.60;99.90
58469;DHT22;44257;44.804;10.220;2022-12-08T04:06:14;4.60;99.90
58469;DHT22;44257;44.804;10.220;2022-12-08T04:08:40;4.60;99.90
58469;DHT22;44257;44.804;10.220;2022-12-08T04:11:06;4.60;99.90
58469;DHT22;44257;44.804;10.220;2022-12-08T04:13:36;4.60;99.90
58469;DHT22;44257;44.804;10.220;2022-12-08T04:16:02;4.60;99.90
58469;DHT22;44257;44.804;10.220;2022-12-08T04:18:28;4.60;99.90
58469;DHT22;44257;44.804;10.220;2022-12-08T04:20:54;4.50;99.90
58469;DHT22;44257;44.804;10.220;2022-12-08T04:23:20;4.50;99.90
58469;DHT22;44257;44.804;10.220;2022-12-08T04:25:46;4.50;99.90
58469;DHT22;44257;44.804;10.220;2022-12-08T04:28:11;4.50;99.90
58469;DHT22;44257;44.804;10.220;2022-12-08T04:30:38;4.50;99.90
58469;DHT22;44257;44.804;10.220;2022-12-08T04:33:04;4.50;99.90
58469;DHT22;44257;44.804;10.220;2022-12-08T04:35:30;4.50;99.90
58469;DHT22;44257;44.804;10.220;2022-12-08T04:37:56;4.50;99.90
58469;DHT22;44257;44.804;10.220;2022-12-08T04:40:22;4.50;99.90
58469;DHT22;44257;44.804;10.220;2022-12-08T04:42:48;4.50;99.90
58469;DHT22;44257;44.804;10.220;2022-12-08T04:45:14;4.60;99.90
58469;DHT22;44257;44.804;10.220;2022-12-08T04:47:40;4.60;99.90
58469;DHT22;44257;44.804;10.220;2022-12-08T04:50:07;4.60;99.90
58469;DHT22;44257;44.804;10.220;2022-12-08T04:52:33;4.60;99.90
58469;DHT22;44257;44.804;10.220;2022-12-08T04:54:59;4.60;99.90
58469;DHT22;44257;44.804;10.220;2022-12-08T04:57:25;4.60;99.90
58469;DHT22;44257;44.804;10.220;2022-12-08T04:59:51;4.60;99.90
58469;DHT22;44257;44.804;10.220;2022-12-08T05:02:17;4.70;99.90
58469;DHT22;44257;44.804;10.220;2022-12-08T05:04:43;4.60;99.90
58469;DHT22;44257;44.804;10.220;2022-12-08T05:07:09;4.60;99.90
58469;DHT22;44257;44.804;10.220;2022-12-08T05:09:35;4.60;99.90
58469;DHT22;44257;44.804;10.220;2022-12-08T05:12:00;4.60;99.90
58469;DHT22;44257;44.804;10.220;2022-12-08T05:14:26;4.50;99.90
58469;DHT22;44257;44.804;10.220;2022-12-08T05:16:52;4.50;99.90
58469;DHT22;44257;44.804;10.220;2022-12-08T05:19:18;4.50;99.90
58469;DHT22;44257;44.804;10.220;2022-12-08T05:21:44;4.50;99.90
58469;DHT22;44257;44.804;10.220;2022-12-08T05:24:10;4.50;99.90
58469;DHT22;44257;44.804;10.220;2022-12-08T05:26:36;4.50;99.90
58469;DHT22;44257;44.804;10.220;2022-12-08T05:29:02;4.50;99.90
58469;DHT22;44257;44.804;10.220;2022-12-08T05:31:28;4.50;99.90
58469;DHT22;44257;44.804;10.220;2022-12-08T05:33:54;4.50;99.90
58469;DHT22;44257;44.804;10.220;2022-12-08T05:36:20;4.60;99.90
58469;DHT22;44257;44.804;10.220;2022-12-08T05:38:46;4.60;99.90
58469;DHT22;44257;44.804;10.220;2022-12-08T05:41:18;4.60;99.90
58469;DHT22;44257;44.804;10.220;2022-12-08T05:43:46;4.60;99.90
58469;DHT22;44257;44.804;10.220;2022-12-08T05:46:12;4.50;99.90
58469;DHT22;44257;44.804;10.220;2022-12-08T05:48:39;4.50;99.90
58469;DHT22;44257;44.804;10.220;2022-12-08T05:51:07;4.50;99.90
58469;DHT22;44257;44.804;10.220;2022-12-08T05:53:37;4.40;99.90
58469;DHT22;44257;44.804;10.220;2022-12-08T05:56:03;4.50;99.90
58469;DHT22;44257;44.804;10.220;2022-12-08T05:58:29;4.50;99.90
58469;DHT22;44257;44.804;10.220;2022-12-08T06:00:55;4.40;99.90
58469;DHT22;44257;44.804;10.220;2022-12-08T06:03:22;4.40;99.90
58469;DHT22;44257;44.804;10.220;2022-12-08T06:05:47;4.40;99.90
58469;DHT22;44257;44.804;10.220;2022-12-08T06:08:15;4.40;99.90
58469;DHT22;44257;44.804;10.220;2022-12-08T06:10:43;4.40;99.90
58469;DHT22;44257;44.804;10.220;2022-12-08T06:13:11;4.40;99.90
58469;DHT22;44257;44.804;10.220;2022-12-08T06:15:37;4.40;99.90
58469;DHT22;44257;44.804;10.220;2022-12-08T06:18:04;4.40;99.90
58469;DHT22;44257;44.804;10.220;2022-12-08T06:20:30;4.30;99.90
58469;DHT22;44257;44.804;10.220;2022-12-08T06:22:56;4.30;99.90
58469;DHT22;44257;44.804;10.220;2022-12-08T06:25:22;4.30;99.90
58469;DHT22;44257;44.804;10.220;2022-12-08T06:27:48;4.30;99.90
58469;DHT22;44257;44.804;10.220;2022-12-08T06:30:15;4.30;99.90
58469;DHT22;44257;44.804;10.220;2022-12-08T06:32:41;4.30;99.90
58469;DHT22;44257;44.804;10.220;2022-12-08T06:35:07;4.40;99.90
58469;DHT22;44257;44.804;10.220;2022-12-08T06:37:33;4.40;99.90
58469;DHT22;44257;44.804;10.220;2022-12-08T06:39:59;4.40;99.90
58469;DHT22;44257;44.804;10.220;2022-12-08T06:42:25;4.40;99.90
58469;DHT22;44257;44.804;10.220;2022-12-08T06:45:18;4.40;99.90
58469;DHT22;44257;44.804;10.220;2022-12-08T06:47:45;4.40;99.90
58469;DHT22;44257;44.804;10.220;2022-12-08T06:50:12;4.40;99.90
58469;DHT22;44257;44.804;10.220;2022-12-08T06:52:38;4.40;99.90
58469;DHT22;44257;44.804;10.220;2022-12-08T06:55:06;4.40;99.90
58469;DHT22;44257;44.804;10.220;2022-12-08T06:57:31;4.40;99.90
58469;DHT22;44257;44.804;10.220;2022-12-08T06:59:57;4.40;99.90
58469;DHT22;44257;44.804;10.220;2022-12-08T07:02:23;4.40;99.90
58469;DHT22;44257;44.804;10.220;2022-12-08T07:04:50;4.40;99.90
58469;DHT22;44257;44.804;10.220;2022-12-08T07:07:16;4.40;99.90
58469;DHT22;44257;44.804;10.220;2022-12-08T07:09:41;4.50;99.90
58469;DHT22;44257;44.804;10.220;2022-12-08T07:12:07;4.50;99.90
58469;DHT22;44257;44.804;10.220;2022-12-08T07:14:33;4.50;99.90
58469;DHT22;44257;44.804;10.220;2022-12-08T07:16:59;4.50;99.90
58469;DHT22;44257;44.804;10.220;2022-12-08T07:19:25;4.50;99.90
58469;DHT22;44257;44.804;10.220;2022-12-08T07:21:51;4.50;99.90
58469;DHT22;44257;44.804;10.220;2022-12-08T07:24:17;4.60;99.90
58469;DHT22;44257;44.804;10.220;2022-12-08T07:26:42;4.60;99.90
58469;DHT22;44257;44.804;10.220;2022-12-08T07:29:09;4.60;99.90
58469;DHT22;44257;44.804;10.220;2022-12-08T07:31:35;4.60;99.90
58469;DHT22;44257;44.804;10.220;2022-12-08T07:34:01;4.70;99.90
58469;DHT22;44257;44.804;10.220;2022-12-08T07:36:27;4.70;99.90
58469;DHT22;44257;44.804;10.220;2022-12-08T07:38:53;4.70;99.90
58469;DHT22;44257;44.804;10.220;2022-12-08T07:41:21;4.70;99.90
58469;DHT22;44257;44.804;10.220;2022-12-08T07:43:47;4.70;99.90
58469;DHT22;44257;44.804;10.220;2022-12-08T07:46:16;4.80;99.90
58469;DHT22;44257;44.804;10.220;2022-12-08T07:48:42;4.80;99.90
58469;DHT22;44257;44.804;10.220;2022-12-08T07:51:10;4.90;99.90
58469;DHT22;44257;44.804;10.220;2022-12-08T07:53:41;4.90;99.90
58469;DHT22;44257;44.804;10.220;2022-12-08T07:56:09;4.90;99.90
58469;DHT22;44257;44.804;10.220;2022-12-08T07:58:35;4.90;99.90
58469;DHT22;44257;44.804;10.220;2022-12-08T08:01:01;5.00;99.90
58469;DHT22;44257;44.804;10.220;2022-12-08T08:03:27;5.00;99.90
58469;DHT22;44257;44.804;10.220;2022-12-08T08:05:52;5.10;99.90
58469;DHT22;44257;44.804;10.220;2022-12-08T08:08:18;5.10;99.90
58469;DHT22;44257;44.804;10.220;2022-12-08T08:10:44;5.10;99.90
58469;DHT22;44257;44.804;10.220;2022-12-08T08:13:12;5.00;99.90
58469;DHT22;44257;44.804;10.220;2022-12-08T08:15:39;5.10;99.90
58469;DHT22;44257;44.804;10.220;2022-12-08T08:18:04;5.10;99.90
58469;DHT22;44257;44.804;10.220;2022-12-08T08:20:31;5.10;99.90
58469;DHT22;44257;44.804;10.220;2022-12-08T08:22:57;5.00;99.90
58469;DHT22;44257;44.804;10.220;2022-12-08T08:25:23;5.00;99.90
58469;DHT22;44257;44.804;10.220;2022-12-08T08:27:49;4.90;99.90
58469;DHT22;44257;44.804;10.220;2022-12-08T08:30:15;4.90;99.90
58469;DHT22;44257;44.804;10.220;2022-12-08T08:32:42;4.90;99.90
58469;DHT22;44257;44.804;10.220;2022-12-08T08:35:09;4.90;99.90
58469;DHT22;44257;44.804;10.220;2022-12-08T08:37:35;4.90;99.90
58469;DHT22;44257;44.804;10.220;2022-12-08T08:40:01;4.90;99.90
58469;DHT22;44257;44.804;10.220;2022-12-08T08:42:27;5.00;99.90
58469;DHT22;44257;44.804;10.220;2022-12-08T08:44:53;4.90;99.90
58469;DHT22;44257;44.804;10.220;2022-12-08T08:47:19;5.00;99.90
58469;DHT22;44257;44.804;10.220;2022-12-08T08:49:45;4.90;99.90
58469;DHT22;44257;44.804;10.220;2022-12-08T08:52:11;4.90;99.90
58469;DHT22;44257;44.804;10.220;2022-12-08T08:54:37;4.90;99.90
58469;DHT22;44257;44.804;10.220;2022-12-08T08:57:03;4.90;99.90
58469;DHT22;44257;44.804;10.220;2022-12-08T08:59:30;4.90;99.90
58469;DHT22;44257;44.804;10.220;2022-12-08T09:01:56;4.90;99.90
58469;DHT22;44257;44.804;10.220;2022-12-08T09:04:23;4.90;99.90
58469;DHT22;44257;44.804;10.220;2022-12-08T09:06:50;5.00;99.90
58469;DHT22;44257;44.804;10.220;2022-12-08T09:09:17;5.00;99.90
58469;DHT22;44257;44.804;10.220;2022-12-08T09:11:44;5.10;99.90
58469;DHT22;44257;44.804;10.220;2022-12-08T09:14:15;5.10;99.90
58469;DHT22;44257;44.804;10.220;2022-12-08T09:16:41;5.10;99.90
58469;DHT22;44257;44.804;10.220;2022-12-08T09:19:07;5.10;99.90
58469;DHT22;44257;44.804;10.220;2022-12-08T09:21:33;5.20;99.90
58469;DHT22;44257;44.804;10.220;2022-12-08T09:23:59;5.20;99.90
58469;DHT22;44257;44.804;10.220;2022-12-08T09:26:26;5.30;99.90
58469;DHT22;44257;44.804;10.220;2022-12-08T09:28:53;5.40;99.90
58469;DHT22;44257;44.804;10.220;2022-12-08T09:31:21;5.40;99.90
58469;DHT22;44257;44.804;10.220;2022-12-08T09:33:47;5.50;99.90
58469;DHT22;44257;44.804;10.220;2022-12-08T09:36:14;5.50;99.90
58469;DHT22;44257;44.804;10.220;2022-12-08T09:38:40;5.60;99.90
58469;DHT22;44257;44.804;10.220;2022-12-08T09:41:34;5.70;99.90
58469;DHT22;44257;44.804;10.220;2022-12-08T09:46:51;5.70;99.90
58469;DHT22;44257;44.804;10.220;2022-12-08T09:49:21;5.70;99.90
58469;DHT22;44257;44.804;10.220;2022-12-08T09:51:49;5.70;99.90
58469;DHT22;44257;44.804;10.220;2022-12-08T09:56:43;5.80;99.90
58469;DHT22;44257;44.804;10.220;2022-12-08T09:59:22;5.90;99.90
58469;DHT22;44257;44.804;10.220;2022-12-08T10:01:49;6.00;99.90
58469;DHT22;44257;44.804;10.220;2022-12-08T10:06:56;6.10;99.90
58469;DHT22;44257;44.804;10.220;2022-12-08T10:12:38;6.20;99.90
58469;DHT22;44257;44.804;10.220;2022-12-08T10:17:54;6.20;99.90
58469;DHT22;44257;44.804;10.220;2022-12-08T10:20:24;6.20;99.90
58469;DHT22;44257;44.804;10.220;2022-12-08T10:25:37;6.30;99.90
58469;DHT22;44257;44.804;10.220;2022-12-08T10:28:03;6.30;99.90
58469;DHT22;44257;44.804;10.220;2022-12-08T10:30:30;6.30;99.90
58469;DHT22;44257;44.804;10.220;2022-12-08T10:32:57;6.40;99.90
58469;DHT22;44257;44.804;10.220;2022-12-08T10:35:23;6.50;99.90
58469;DHT22;44257;44.804;10.220;2022-12-08T10:38:01;6.70;99.90
58469;DHT22;44257;44.804;10.220;2022-12-08T10:40:35;6.90;99.90
58469;DHT22;44257;44.804;10.220;2022-12-08T10:43:01;7.00;99.90
58469;DHT22;44257;44.804;10.220;2022-12-08T10:45:38;7.00;99.90
58469;DHT22;44257;44.804;10.220;2022-12-08T10:48:17;6.80;99.90
58469;DHT22;44257;44.804;10.220;2022-12-08T10:53:32;6.60;99.90
58469;DHT22;44257;44.804;10.220;2022-12-08T10:58:36;6.70;99.90
58469;DHT22;44257;44.804;10.220;2022-12-08T11:01:08;6.80;99.90
58469;DHT22;44257;44.804;10.220;2022-12-08T11:03:48;6.90;99.90
58469;DHT22;44257;44.804;10.220;2022-12-08T11:06:35;7.10;99.90
58469;DHT22;44257;44.804;10.220;2022-12-08T11:11:49;7.20;99.90
58469;DHT22;44257;44.804;10.220;2022-12-08T11:17:25;7.60;99.90
58469;DHT22;44257;44.804;10.220;2022-12-08T11:20:17;7.60;99.90
58469;DHT22;44257;44.804;10.220;2022-12-08T11:22:53;7.50;99.90
58469;DHT22;44257;44.804;10.220;2022-12-08T11:25:26;7.40;99.90
58469;DHT22;44257;44.804;10.220;2022-12-08T11:28:01;7.40;99.90
58469;DHT22;44257;44.804;10.220;2022-12-08T11:30:52;7.50;99.90
58469;DHT22;44257;44.804;10.220;2022-12-08T11:33:25;7.60;99.90
58469;DHT22;44257;44.804;10.220;2022-12-08T11:36:12;7.60;99.90
58469;DHT22;44257;44.804;10.220;2022-12-08T11:38:43;7.50;99.90
58469;DHT22;44257;44.804;10.220;2022-12-08T11:41:15;7.50;99.90
58469;DHT22;44257;44.804;10.220;2022-12-08T11:43:53;7.50;99.90
58469;DHT22;44257;44.804;10.220;2022-12-08T11:46:51;7.50;99.90
58469;DHT22;44257;44.804;10.220;2022-12-08T11:49:19;7.60;99.90
58469;DHT22;44257;44.804;10.220;2022-12-08T11:51:58;7.60;99.90
58469;DHT22;44257;44.804;10.220;2022-12-08T11:54:31;7.60;99.90
58469;DHT22;44257;44.804;10.220;2022-12-08T11:57:00;7.60;99.90
58469;DHT22;44257;44.804;10.220;2022-12-08T11:59:44;7.70;99.90
58469;DHT22;44257;44.804;10.220;2022-12-08T12:02:18;7.70;99.90
58469;DHT22;44257;44.804;10.220;2022-12-08T12:10:28;8.20;99.90
58469;DHT22;44257;44.804;10.220;2022-12-08T12:18:33;8.10;99.90
58469;DHT22;44257;44.804;10.220;2022-12-08T12:21:20;7.90;99.90
58469;DHT22;44257;44.804;10.220;2022-12-08T12:24:05;7.80;99.90
58469;DHT22;44257;44.804;10.220;2022-12-08T12:26:36;7.70;99.90
58469;DHT22;44257;44.804;10.220;2022-12-08T12:29:18;7.70;99.90
58469;DHT22;44257;44.804;10.220;2022-12-08T12:31:51;7.70;99.90
58469;DHT22;44257;44.804;10.220;2022-12-08T12:34:22;7.80;99.90
58469;DHT22;44257;44.804;10.220;2022-12-08T12:37:01;7.90;99.90
58469;DHT22;44257;44.804;10.220;2022-12-08T12:39:30;8.00;99.90
58469;DHT22;44257;44.804;10.220;2022-12-08T12:42:01;7.90;99.90
58469;DHT22;44257;44.804;10.220;2022-12-08T12:46:58;8.10;99.90
58469;DHT22;44257;44.804;10.220;2022-12-08T12:54:44;8.10;99.90
58469;DHT22;44257;44.804;10.220;2022-12-08T13:07:47;8.00;99.90
58469;DHT22;44257;44.804;10.220;2022-12-08T13:10:36;8.10;99.90
58469;DHT22;44257;44.804;10.220;2022-12-08T13:18:23;8.20;99.90
58469;DHT22;44257;44.804;10.220;2022-12-08T13:21:11;8.20;99.90
58469;DHT22;44257;44.804;10.220;2022-12-08T13:23:47;8.10;99.90
58469;DHT22;44257;44.804;10.220;2022-12-08T13:26:21;8.10;99.90
58469;DHT22;44257;44.804;10.220;2022-12-08T13:47:26;7.80;99.90
58469;DHT22;44257;44.804;10.220;2022-12-08T13:50:20;7.80;99.90
58469;DHT22;44257;44.804;10.220;2022-12-08T13:52:56;7.80;99.90
58469;DHT22;44257;44.804;10.220;2022-12-08T13:55:33;7.80;99.90
58469;DHT22;44257;44.804;10.220;2022-12-08T13:58:00;7.70;99.90
58469;DHT22;44257;44.804;10.220;2022-12-08T14:00:25;7.70;99.90
58469;DHT22;44257;44.804;10.220;2022-12-08T14:02:57;7.60;99.90
58469;DHT22;44257;44.804;10.220;2022-12-08T14:05:24;7.70;99.90
58469;DHT22;44257;44.804;10.220;2022-12-08T14:07:53;7.70;99.90
58469;DHT22;44257;44.804;10.220;2022-12-08T14:10:26;7.90;99.90
58469;DHT22;44257;44.804;10.220;2022-12-08T14:13:01;8.00;99.90
58469;DHT22;44257;44.804;10.220;2022-12-08T14:15:31;8.20;99.90
58469;DHT22;44257;44.804;10.220;2022-12-08T14:17:57;8.20;99.90
58469;DHT22;44257;44.804;10.220;2022-12-08T14:20:27;8.20;99.90
58469;DHT22;44257;44.804;10.220;2022-12-08T14:22:54;8.00;99.90
58469;DHT22;44257;44.804;10.220;2022-12-08T14:25:21;8.00;99.90
58469;DHT22;44257;44.804;10.220;2022-12-08T14:27:48;7.90;99.90
58469;DHT22;44257;44.804;10.220;2022-12-08T14:30:24;7.80;99.90
58469;DHT22;44257;44.804;10.220;2022-12-08T14:32:59;7.60;99.90
58469;DHT22;44257;44.804;10.220;2022-12-08T14:35:30;7.40;99.90
58469;DHT22;44257;44.804;10.220;2022-12-08T14:38:01;7.30;99.90
58469;DHT22;44257;44.804;10.220;2022-12-08T14:40:34;7.10;99.90
58469;DHT22;44257;44.804;10.220;2022-12-08T14:48:40;6.80;99.90
58469;DHT22;44257;44.804;10.220;2022-12-08T14:54:00;6.60;99.90
58469;DHT22;44257;44.804;10.220;2022-12-08T14:56:53;6.60;99.90
58469;DHT22;44257;44.804;10.220;2022-12-08T15:01:51;6.50;99.90
58469;DHT22;44257;44.804;10.220;2022-12-08T15:04:23;6.40;99.90
58469;DHT22;44257;44.804;10.220;2022-12-08T15:06:59;6.40;99.90
58469;DHT22;44257;44.804;10.220;2022-12-08T15:09:41;6.30;99.90
58469;DHT22;44257;44.804;10.220;2022-12-08T15:15:13;6.20;99.90
58469;DHT22;44257;44.804;10.220;2022-12-08T15:17:43;6.20;99.90
58469;DHT22;44257;44.804;10.220;2022-12-08T15:22:52;5.90;99.90
58469;DHT22;44257;44.804;10.220;2022-12-08T15:25:18;5.80;99.90
58469;DHT22;44257;44.804;10.220;2022-12-08T15:27:44;5.70;99.90
58469;DHT22;44257;44.804;10.220;2022-12-08T15:30:16;5.60;99.90
58469;DHT22;44257;44.804;10.220;2022-12-08T15:32:43;5.50;99.90
58469;DHT22;44257;44.804;10.220;2022-12-08T15:35:14;5.40;99.90
58469;DHT22;44257;44.804;10.220;2022-12-08T15:37:40;5.30;99.90
58469;DHT22;44257;44.804;10.220;2022-12-08T15:40:14;5.20;99.90
58469;DHT22;44257;44.804;10.220;2022-12-08T15:42:40;5.10;99.90
58469;DHT22;44257;44.804;10.220;2022-12-08T15:45:10;5.10;99.90
58469;DHT22;44257;44.804;10.220;2022-12-08T15:47:36;5.00;99.90
58469;DHT22;44257;44.804;10.220;2022-12-08T15:50:02;5.00;99.90
58469;DHT22;44257;44.804;10.220;2022-12-08T15:52:28;5.00;99.90
58469;DHT22;44257;44.804;10.220;2022-12-08T15:54:54;4.90;99.90
58469;DHT22;44257;44.804;10.220;2022-12-08T15:57:24;4.90;99.90
58469;DHT22;44257;44.804;10.220;2022-12-08T15:59:51;4.80;99.90
58469;DHT22;44257;44.804;10.220;2022-12-08T16:02:18;4.80;99.90
58469;DHT22;44257;44.804;10.220;2022-12-08T16:04:44;4.70;99.90
58469;DHT22;44257;44.804;10.220;2022-12-08T16:07:24;4.70;99.90
58469;DHT22;44257;44.804;10.220;2022-12-08T16:09:51;4.70;99.90
58469;DHT22;44257;44.804;10.220;2022-12-08T16:12:23;4.60;99.90
58469;DHT22;44257;44.804;10.220;2022-12-08T16:15:08;4.60;99.90
58469;DHT22;44257;44.804;10.220;2022-12-08T16:17:35;4.50;99.90
58469;DHT22;44257;44.804;10.220;2022-12-08T16:20:02;4.50;99.90
58469;DHT22;44257;44.804;10.220;2022-12-08T16:22:29;4.50;99.90
58469;DHT22;44257;44.804;10.220;2022-12-08T16:24:57;4.50;99.90
58469;DHT22;44257;44.804;10.220;2022-12-08T16:27:28;4.60;99.90
58469;DHT22;44257;44.804;10.220;2022-12-08T16:29:56;4.70;99.90
58469;DHT22;44257;44.804;10.220;2022-12-08T16:32:22;4.80;99.90
58469;DHT22;44257;44.804;10.220;2022-12-08T16:34:49;4.90;99.90
58469;DHT22;44257;44.804;10.220;2022-12-08T16:37:25;4.90;99.90
58469;DHT22;44257;44.804;10.220;2022-12-08T16:39:54;4.90;99.90
58469;DHT22;44257;44.804;10.220;2022-12-08T16:42:33;5.00;99.90
58469;DHT22;44257;44.804;10.220;2022-12-08T16:47:41;5.10;99.90
58469;DHT22;44257;44.804;10.220;2022-12-08T16:50:16;5.10;99.90
58469;DHT22;44257;44.804;10.220;2022-12-08T16:52:42;5.10;99.90
58469;DHT22;44257;44.804;10.220;2022-12-08T16:55:11;5.20;99.90
58469;DHT22;44257;44.804;10.220;2022-12-08T16:57:37;5.20;99.90
58469;DHT22;44257;44.804;10.220;2022-12-08T17:00:06;5.20;99.90
58469;DHT22;44257;44.804;10.220;2022-12-08T17:02:33;5.30;99.90
58469;DHT22;44257;44.804;10.220;2022-12-08T17:04:58;5.30;99.90
58469;DHT22;44257;44.804;10.220;2022-12-08T17:07:24;5.40;99.90
58469;DHT22;44257;44.804;10.220;2022-12-08T17:09:50;5.40;99.90
58469;DHT22;44257;44.804;10.220;2022-12-08T17:12:16;5.40;99.90
58469;DHT22;44257;44.804;10.220;2022-12-08T17:14:42;5.40;99.90
58469;DHT22;44257;44.804;10.220;2022-12-08T17:17:08;5.50;99.90
58469;DHT22;44257;44.804;10.220;2022-12-08T17:19:34;5.50;99.90
58469;DHT22;44257;44.804;10.220;2022-12-08T17:22:00;5.50;99.90
58469;DHT22;44257;44.804;10.220;2022-12-08T17:24:27;5.60;99.90
58469;DHT22;44257;44.804;10.220;2022-12-08T17:26:57;5.60;99.90
58469;DHT22;44257;44.804;10.220;2022-12-08T17:29:31;5.60;99.90
58469;DHT22;44257;44.804;10.220;2022-12-08T17:31:58;5.60;99.90
58469;DHT22;44257;44.804;10.220;2022-12-08T17:34:24;5.70;99.90
58469;DHT22;44257;44.804;10.220;2022-12-08T17:36:50;5.60;99.90
58469;DHT22;44257;44.804;10.220;2022-12-08T17:39:16;5.70;99.90
58469;DHT22;44257;44.804;10.220;2022-12-08T17:41:42;5.70;99.90
58469;DHT22;44257;44.804;10.220;2022-12-08T17:44:12;5.70;99.90
58469;DHT22;44257;44.804;10.220;2022-12-08T17:46:39;5.70;99.90
58469;DHT22;44257;44.804;10.220;2022-12-08T17:49:17;5.70;99.90
58469;DHT22;44257;44.804;10.220;2022-12-08T17:51:46;5.70;99.90
58469;DHT22;44257;44.804;10.220;2022-12-08T17:54:13;5.70;99.90
58469;DHT22;44257;44.804;10.220;2022-12-08T17:56:38;5.70;99.90
58469;DHT22;44257;44.804;10.220;2022-12-08T17:59:04;5.70;99.90
58469;DHT22;44257;44.804;10.220;2022-12-08T18:01:30;5.80;99.90
58469;DHT22;44257;44.804;10.220;2022-12-08T18:04:00;5.80;99.90
58469;DHT22;44257;44.804;10.220;2022-12-08T18:06:28;5.80;99.90
58469;DHT22;44257;44.804;10.220;2022-12-08T18:08:58;5.80;99.90